sensor_id;sensor_type;location;lat;lon;timestamp;pressure;altitude;pressure_sealevel;temperature;humidity
75629;BME280;64213;46.452;16.994;2023-11-18T00:02:45;100191.81;;;4.84;68.81
75629;BME280;64213;46.452;16.994;2023-11-18T00:05:48;100182.44;;;4.79;68.94
75629;BME280;64213;46.452;16.994;2023-11-18T00:08:50;100193.69;;;4.81;68.39
75629;BME280;64213;46.452;16.994;2023-11-18T00:11:53;100193.19;;;4.71;68.76
75629;BME280;64213;46.452;16.994;2023-11-18T00:14:56;100189.81;;;4.68;68.84
75629;BME280;64213;46.452;16.994;2023-11-18T00:17:59;100191.47;;;4.70;68.72
75629;BME280;64213;46.452;16.994;2023-11-18T00:21:02;100192.84;;;4.80;68.21
75629;BME280;64213;46.452;16.994;2023-11-18T00:24:07;100189.28;;;4.81;68.13
75629;BME280;64213;46.452;16.994;2023-11-18T00:27:10;100193.75;;;4.79;68.38
75629;BME280;64213;46.452;16.994;2023-11-18T00:30:13;100188.56;;;4.78;68.14
75629;BME280;64213;46.452;16.994;2023-11-18T00:33:15;100204.13;;;4.82;67.73
75629;BME280;64213;46.452;16.994;2023-11-18T00:36:19;100205.22;;;4.77;68.21
75629;BME280;64213;46.452;16.994;2023-11-18T00:39:21;100204.47;;;4.73;67.83
75629;BME280;64213;46.452;16.994;2023-11-18T00:42:24;100209.75;;;4.72;68.11
75629;BME280;64213;46.452;16.994;2023-11-18T00:45:27;100212.56;;;4.67;68.33
75629;BME280;64213;46.452;16.994;2023-11-18T00:48:30;100221.44;;;4.63;68.37
75629;BME280;64213;46.452;16.994;2023-11-18T00:51:33;100229.47;;;4.58;68.78
75629;BME280;64213;46.452;16.994;2023-11-18T00:54:35;100229.41;;;4.60;68.12
75629;BME280;64213;46.452;16.994;2023-11-18T00:57:38;100222.78;;;4.50;68.20
75629;BME280;64213;46.452;16.994;2023-11-18T01:00:41;100225.12;;;4.57;67.96
75629;BME280;64213;46.452;16.994;2023-11-18T01:03:44;100226.81;;;4.60;67.87
75629;BME280;64213;46.452;16.994;2023-11-18T01:06:47;100226.47;;;4.69;66.94
75629;BME280;64213;46.452;16.994;2023-11-18T01:09:50;100231.81;;;4.66;67.04
75629;BME280;64213;46.452;16.994;2023-11-18T01:12:53;100233.84;;;4.58;67.25
75629;BME280;64213;46.452;16.994;2023-11-18T01:15:58;100231.34;;;4.55;67.55
75629;BME280;64213;46.452;16.994;2023-11-18T01:19:00;100228.69;;;4.56;67.24
75629;BME280;64213;46.452;16.994;2023-11-18T01:22:03;100224.56;;;4.49;67.36
75629;BME280;64213;46.452;16.994;2023-11-18T01:25:08;100210.72;;;4.46;67.50
75629;BME280;64213;46.452;16.994;2023-11-18T01:28:11;100222.25;;;4.40;68.05
75629;BME280;64213;46.452;16.994;2023-11-18T01:31:13;100231.09;;;4.37;68.08
75629;BME280;64213;46.452;16.994;2023-11-18T01:34:16;100228.59;;;4.34;68.45
75629;BME280;64213;46.452;16.994;2023-11-18T01:37:19;100224.13;;;4.36;68.43
75629;BME280;64213;46.452;16.994;2023-11-18T01:40:25;100229.59;;;4.30;68.75
75629;BME280;64213;46.452;16.994;2023-11-18T01:43:27;100238.31;;;4.31;68.64
75629;BME280;64213;46.452;16.994;2023-11-18T01:46:30;100235.84;;;4.26;68.86
75629;BME280;64213;46.452;16.994;2023-11-18T01:49:35;100238.69;;;4.20;69.40
75629;BME280;64213;46.452;16.994;2023-11-18T01:52:42;100247.66;;;4.13;69.60
75629;BME280;64213;46.452;16.994;2023-11-18T01:55:48;100242.53;;;4.10;69.64
75629;BME280;64213;46.452;16.994;2023-11-18T01:58:52;100244.28;;;4.09;69.76
75629;BME280;64213;46.452;16.994;2023-11-18T02:01:55;100246.16;;;4.06;69.81
75629;BME280;64213;46.452;16.994;2023-11-18T02:05:02;100256.75;;;4.03;69.92
75629;BME280;64213;46.452;16.994;2023-11-18T02:08:05;100256.12;;;3.94;70.22
75629;BME280;64213;46.452;16.994;2023-11-18T02:11:19;100264.06;;;3.91;70.63
75629;BME280;64213;46.452;16.994;2023-11-18T02:14:26;100267.09;;;3.79;71.53
75629;BME280;64213;46.452;16.994;2023-11-18T02:17:31;100273.34;;;3.75;71.83
75629;BME280;64213;46.452;16.994;2023-11-18T02:20:36;100271.47;;;3.79;71.31
75629;BME280;64213;46.452;16.994;2023-11-18T02:23:41;100278.47;;;3.78;71.26
75629;BME280;64213;46.452;16.994;2023-11-18T02:26:44;100274.06;;;3.80;71.08
75629;BME280;64213;46.452;16.994;2023-11-18T02:29:48;100274.94;;;3.79;71.49
75629;BME280;64213;46.452;16.994;2023-11-18T02:33:05;100280.28;;;3.76;71.64
75629;BME280;64213;46.452;16.994;2023-11-18T02:36:35;100280.56;;;3.67;72.19
75629;BME280;64213;46.452;16.994;2023-11-18T02:39:48;100289.50;;;3.60;72.58
75629;BME280;64213;46.452;16.994;2023-11-18T02:42:57;100282.84;;;3.51;72.99
75629;BME280;64213;46.452;16.994;2023-11-18T02:46:01;100281.16;;;3.48;73.09
75629;BME280;64213;46.452;16.994;2023-11-18T02:49:04;100295.31;;;3.41;73.71
75629;BME280;64213;46.452;16.994;2023-11-18T02:52:07;100298.16;;;3.34;74.18
75629;BME280;64213;46.452;16.994;2023-11-18T02:55:12;100290.47;;;3.29;74.54
75629;BME280;64213;46.452;16.994;2023-11-18T02:58:14;100294.16;;;3.22;74.93
75629;BME280;64213;46.452;16.994;2023-11-18T03:01:19;100311.00;;;3.13;75.16
75629;BME280;64213;46.452;16.994;2023-11-18T03:04:22;100312.84;;;3.10;75.16
75629;BME280;64213;46.452;16.994;2023-11-18T03:07:26;100314.84;;;3.00;75.62
75629;BME280;64213;46.452;16.994;2023-11-18T03:10:32;100315.13;;;2.91;75.95
75629;BME280;64213;46.452;16.994;2023-11-18T03:13:38;100328.28;;;2.86;76.11
75629;BME280;64213;46.452;16.994;2023-11-18T03:16:40;100325.94;;;2.77;76.59
75629;BME280;64213;46.452;16.994;2023-11-18T03:19:43;100335.91;;;2.63;77.55
75629;BME280;64213;46.452;16.994;2023-11-18T03:22:46;100338.75;;;2.53;78.21
75629;BME280;64213;46.452;16.994;2023-11-18T03:25:49;100339.81;;;2.46;78.57
75629;BME280;64213;46.452;16.994;2023-11-18T03:28:51;100350.41;;;2.40;79.56
75629;BME280;64213;46.452;16.994;2023-11-18T03:31:54;100346.13;;;2.38;79.39
75629;BME280;64213;46.452;16.994;2023-11-18T03:34:56;100347.12;;;2.32;79.16
75629;BME280;64213;46.452;16.994;2023-11-18T03:38:01;100348.97;;;2.28;79.50
75629;BME280;64213;46.452;16.994;2023-11-18T03:41:04;100351.72;;;2.22;79.89
75629;BME280;64213;46.452;16.994;2023-11-18T03:44:06;100349.31;;;2.15;80.30
75629;BME280;64213;46.452;16.994;2023-11-18T03:47:09;100342.53;;;2.07;80.54
75629;BME280;64213;46.452;16.994;2023-11-18T03:50:11;100348.75;;;2.02;81.21
75629;BME280;64213;46.452;16.994;2023-11-18T03:53:15;100350.31;;;2.09;80.36
75629;BME280;64213;46.452;16.994;2023-11-18T03:56:18;100353.56;;;2.19;80.27
75629;BME280;64213;46.452;16.994;2023-11-18T03:59:21;100351.09;;;2.13;80.52
75629;BME280;64213;46.452;16.994;2023-11-18T04:02:23;100352.00;;;2.12;79.56
75629;BME280;64213;46.452;16.994;2023-11-18T04:05:27;100356.31;;;2.13;79.19
75629;BME280;64213;46.452;16.994;2023-11-18T04:08:29;100353.62;;;2.16;79.22
75629;BME280;64213;46.452;16.994;2023-11-18T04:11:31;100371.75;;;2.22;78.37
75629;BME280;64213;46.452;16.994;2023-11-18T04:14:34;100362.22;;;2.21;79.37
75629;BME280;64213;46.452;16.994;2023-11-18T04:17:36;100371.75;;;2.22;78.64
75629;BME280;64213;46.452;16.994;2023-11-18T04:20:40;100369.94;;;2.25;78.58
75629;BME280;64213;46.452;16.994;2023-11-18T04:23:43;100372.53;;;2.25;78.13
75629;BME280;64213;46.452;16.994;2023-11-18T04:26:49;100373.44;;;2.24;78.72
75629;BME280;64213;46.452;16.994;2023-11-18T04:29:52;100373.47;;;2.23;78.12
75629;BME280;64213;46.452;16.994;2023-11-18T04:32:54;100369.16;;;2.22;78.03
75629;BME280;64213;46.452;16.994;2023-11-18T04:35:56;100370.81;;;2.24;78.26
75629;BME280;64213;46.452;16.994;2023-11-18T04:39:02;100367.31;;;2.25;78.43
75629;BME280;64213;46.452;16.994;2023-11-18T04:42:05;100370.62;;;2.32;77.82
75629;BME280;64213;46.452;16.994;2023-11-18T04:45:08;100377.69;;;2.28;78.15
75629;BME280;64213;46.452;16.994;2023-11-18T04:48:12;100367.47;;;2.19;78.19
75629;BME280;64213;46.452;16.994;2023-11-18T04:51:15;100375.19;;;2.24;78.14
75629;BME280;64213;46.452;16.994;2023-11-18T04:54:19;100388.38;;;2.53;76.98
75629;BME280;64213;46.452;16.994;2023-11-18T04:57:22;100386.75;;;2.49;77.22
75629;BME280;64213;46.452;16.994;2023-11-18T05:00:24;100386.69;;;2.84;75.44
75629;BME280;64213;46.452;16.994;2023-11-18T05:03:27;100385.94;;;2.80;75.79
75629;BME280;64213;46.452;16.994;2023-11-18T05:06:29;100384.38;;;2.73;75.97
75629;BME280;64213;46.452;16.994;2023-11-18T05:09:32;100392.44;;;2.96;75.33
75629;BME280;64213;46.452;16.994;2023-11-18T05:12:34;100396.41;;;3.11;74.45
75629;BME280;64213;46.452;16.994;2023-11-18T05:15:37;100395.16;;;3.24;74.10
75629;BME280;64213;46.452;16.994;2023-11-18T05:18:39;100408.12;;;3.29;73.69
75629;BME280;64213;46.452;16.994;2023-11-18T05:21:43;100419.19;;;3.39;73.46
75629;BME280;64213;46.452;16.994;2023-11-18T05:24:46;100422.66;;;3.38;73.62
75629;BME280;64213;46.452;16.994;2023-11-18T05:27:50;100418.12;;;3.44;73.41
75629;BME280;64213;46.452;16.994;2023-11-18T05:30:52;100413.28;;;3.62;72.67
75629;BME280;64213;46.452;16.994;2023-11-18T05:33:55;100415.06;;;3.60;72.63
75629;BME280;64213;46.452;16.994;2023-11-18T05:36:57;100408.22;;;3.56;72.74
75629;BME280;64213;46.452;16.994;2023-11-18T05:40:02;100410.00;;;3.54;72.86
75629;BME280;64213;46.452;16.994;2023-11-18T05:43:09;100412.28;;;3.66;72.46
75629;BME280;64213;46.452;16.994;2023-11-18T05:46:18;100408.16;;;3.57;72.92
75629;BME280;64213;46.452;16.994;2023-11-18T05:49:25;100409.16;;;3.53;73.02
75629;BME280;64213;46.452;16.994;2023-11-18T05:52:28;100397.25;;;3.43;73.31
75629;BME280;64213;46.452;16.994;2023-11-18T05:55:30;100407.66;;;3.44;73.53
75629;BME280;64213;46.452;16.994;2023-11-18T05:58:33;100422.50;;;3.44;73.60
75629;BME280;64213;46.452;16.994;2023-11-18T06:01:36;100423.41;;;3.43;73.66
75629;BME280;64213;46.452;16.994;2023-11-18T06:04:41;100434.53;;;3.49;73.39
75629;BME280;64213;46.452;16.994;2023-11-18T06:07:44;100445.09;;;3.46;73.42
75629;BME280;64213;46.452;16.994;2023-11-18T06:10:46;100449.56;;;3.43;73.73
75629;BME280;64213;46.452;16.994;2023-11-18T06:13:50;100454.09;;;3.36;73.97
75629;BME280;64213;46.452;16.994;2023-11-18T06:16:53;100457.97;;;3.23;74.88
75629;BME280;64213;46.452;16.994;2023-11-18T06:19:55;100459.44;;;3.32;74.49
75629;BME280;64213;46.452;16.994;2023-11-18T06:22:58;100466.34;;;3.34;74.39
75629;BME280;64213;46.452;16.994;2023-11-18T06:26:00;100468.03;;;3.37;74.21
75629;BME280;64213;46.452;16.994;2023-11-18T06:29:03;100467.28;;;3.32;74.48
75629;BME280;64213;46.452;16.994;2023-11-18T06:32:06;100464.41;;;3.41;74.03
75629;BME280;64213;46.452;16.994;2023-11-18T06:35:10;100471.16;;;3.49;73.76
75629;BME280;64213;46.452;16.994;2023-11-18T06:38:13;100473.03;;;3.44;73.94
75629;BME280;64213;46.452;16.994;2023-11-18T06:41:19;100482.91;;;3.66;73.13
75629;BME280;64213;46.452;16.994;2023-11-18T06:44:21;100487.28;;;3.65;73.25
75629;BME280;64213;46.452;16.994;2023-11-18T06:47:26;100479.50;;;3.64;73.27
75629;BME280;64213;46.452;16.994;2023-11-18T06:50:30;100490.22;;;3.55;74.17
75629;BME280;64213;46.452;16.994;2023-11-18T06:53:34;100497.31;;;3.49;74.39
75629;BME280;64213;46.452;16.994;2023-11-18T06:56:37;100503.31;;;3.53;74.51
75629;BME280;64213;46.452;16.994;2023-11-18T06:59:40;100507.44;;;3.91;72.58
75629;BME280;64213;46.452;16.994;2023-11-18T07:02:42;100509.25;;;4.19;71.09
75629;BME280;64213;46.452;16.994;2023-11-18T07:05:45;100509.34;;;4.16;71.24
75629;BME280;64213;46.452;16.994;2023-11-18T07:08:48;100514.13;;;4.31;70.65
75629;BME280;64213;46.452;16.994;2023-11-18T07:11:51;100525.03;;;4.46;70.00
75629;BME280;64213;46.452;16.994;2023-11-18T07:14:54;100514.16;;;4.58;69.08
75629;BME280;64213;46.452;16.994;2023-11-18T07:17:56;100515.59;;;4.68;68.73
75629;BME280;64213;46.452;16.994;2023-11-18T07:20:59;100521.34;;;4.79;68.33
75629;BME280;64213;46.452;16.994;2023-11-18T07:24:01;100522.09;;;4.83;68.37
75629;BME280;64213;46.452;16.994;2023-11-18T07:27:07;100520.84;;;4.95;67.81
75629;BME280;64213;46.452;16.994;2023-11-18T07:30:09;100513.88;;;5.20;66.80
75629;BME280;64213;46.452;16.994;2023-11-18T07:33:16;100515.56;;;5.46;65.29
75629;BME280;64213;46.452;16.994;2023-11-18T07:36:19;100513.34;;;5.84;63.65
75629;BME280;64213;46.452;16.994;2023-11-18T07:39:24;100506.78;;;5.96;62.91
75629;BME280;64213;46.452;16.994;2023-11-18T07:42:46;100513.28;;;6.09;62.04
75629;BME280;64213;46.452;16.994;2023-11-18T07:45:48;100514.78;;;6.16;61.06
75629;BME280;64213;46.452;16.994;2023-11-18T07:48:59;100518.75;;;6.26;61.42
75629;BME280;64213;46.452;16.994;2023-11-18T07:52:04;100519.38;;;6.33;60.92
75629;BME280;64213;46.452;16.994;2023-11-18T07:55:06;100520.72;;;6.43;59.34
75629;BME280;64213;46.452;16.994;2023-11-18T07:58:11;100528.22;;;6.54;59.70
75629;BME280;64213;46.452;16.994;2023-11-18T08:01:14;100528.69;;;6.64;59.79
75629;BME280;64213;46.452;16.994;2023-11-18T08:04:20;100535.59;;;6.66;59.09
75629;BME280;64213;46.452;16.994;2023-11-18T08:07:23;100525.16;;;6.65;58.88
75629;BME280;64213;46.452;16.994;2023-11-18T08:10:25;100533.75;;;6.68;58.88
75629;BME280;64213;46.452;16.994;2023-11-18T08:13:28;100527.09;;;6.82;57.97
75629;BME280;64213;46.452;16.994;2023-11-18T08:16:30;100528.25;;;6.96;57.69
75629;BME280;64213;46.452;16.994;2023-11-18T08:19:35;100530.28;;;7.10;57.04
75629;BME280;64213;46.452;16.994;2023-11-18T08:22:41;100530.31;;;7.31;57.03
75629;BME280;64213;46.452;16.994;2023-11-18T08:25:56;100535.59;;;7.31;56.79
75629;BME280;64213;46.452;16.994;2023-11-18T08:29:02;100531.47;;;7.23;57.31
75629;BME280;64213;46.452;16.994;2023-11-18T08:32:05;100532.78;;;7.34;56.85
75629;BME280;64213;46.452;16.994;2023-11-18T08:35:09;100525.78;;;7.34;56.67
75629;BME280;64213;46.452;16.994;2023-11-18T08:38:12;100529.56;;;7.27;56.39
75629;BME280;64213;46.452;16.994;2023-11-18T08:41:15;100524.13;;;7.32;56.02
75629;BME280;64213;46.452;16.994;2023-11-18T08:44:17;100524.16;;;7.30;55.85
75629;BME280;64213;46.452;16.994;2023-11-18T08:47:25;100530.31;;;7.51;55.66
75629;BME280;64213;46.452;16.994;2023-11-18T08:50:28;100530.53;;;7.65;54.53
75629;BME280;64213;46.452;16.994;2023-11-18T08:53:30;100526.34;;;7.61;54.03
75629;BME280;64213;46.452;16.994;2023-11-18T08:56:39;100531.91;;;7.74;53.68
75629;BME280;64213;46.452;16.994;2023-11-18T08:59:44;100535.94;;;7.83;53.67
75629;BME280;64213;46.452;16.994;2023-11-18T09:02:46;100540.84;;;7.90;53.23
75629;BME280;64213;46.452;16.994;2023-11-18T09:05:57;100542.37;;;8.15;52.71
75629;BME280;64213;46.452;16.994;2023-11-18T09:09:00;100539.06;;;8.10;52.27
75629;BME280;64213;46.452;16.994;2023-11-18T09:12:08;100541.69;;;7.91;52.96
75629;BME280;64213;46.452;16.994;2023-11-18T09:15:10;100535.53;;;7.92;53.27
75629;BME280;64213;46.452;16.994;2023-11-18T09:18:20;100532.00;;;7.73;53.31
75629;BME280;64213;46.452;16.994;2023-11-18T09:21:24;100535.75;;;7.67;54.00
75629;BME280;64213;46.452;16.994;2023-11-18T09:24:31;100526.88;;;7.49;54.07
75629;BME280;64213;46.452;16.994;2023-11-18T09:27:36;100526.19;;;7.64;54.00
75629;BME280;64213;46.452;16.994;2023-11-18T09:30:42;100541.87;;;7.67;54.08
75629;BME280;64213;46.452;16.994;2023-11-18T09:33:52;100528.84;;;7.64;53.94
75629;BME280;64213;46.452;16.994;2023-11-18T09:36:55;100533.03;;;7.68;54.13
75629;BME280;64213;46.452;16.994;2023-11-18T09:39:57;100526.06;;;7.67;53.80
75629;BME280;64213;46.452;16.994;2023-11-18T09:43:00;100533.13;;;7.67;53.92
75629;BME280;64213;46.452;16.994;2023-11-18T09:46:12;100533.56;;;7.77;53.77
75629;BME280;64213;46.452;16.994;2023-11-18T09:49:22;100530.53;;;7.86;54.00
75629;BME280;64213;46.452;16.994;2023-11-18T09:52:47;100523.56;;;8.23;52.83
75629;BME280;64213;46.452;16.994;2023-11-18T09:56:07;100534.31;;;8.92;51.16
75629;BME280;64213;46.452;16.994;2023-11-18T09:59:29;100527.34;;;9.94;49.17
75629;BME280;64213;46.452;16.994;2023-11-18T10:02:33;100515.94;;;11.18;46.96
75629;BME280;64213;46.452;16.994;2023-11-18T10:05:39;100520.38;;;10.88;46.66
75629;BME280;64213;46.452;16.994;2023-11-18T10:08:42;100516.75;;;11.05;45.22
75629;BME280;64213;46.452;16.994;2023-11-18T10:11:48;100526.19;;;11.25;45.00
75629;BME280;64213;46.452;16.994;2023-11-18T10:14:50;100521.06;;;10.91;44.56
75629;BME280;64213;46.452;16.994;2023-11-18T10:17:54;100528.72;;;10.66;45.94
75629;BME280;64213;46.452;16.994;2023-11-18T10:21:03;100529.72;;;10.79;44.84
75629;BME280;64213;46.452;16.994;2023-11-18T10:24:07;100528.78;;;10.33;45.55
75629;BME280;64213;46.452;16.994;2023-11-18T10:27:27;100531.16;;;9.88;46.12
75629;BME280;64213;46.452;16.994;2023-11-18T10:30:30;100532.37;;;9.98;45.55
75629;BME280;64213;46.452;16.994;2023-11-18T10:33:36;100530.25;;;9.89;46.18
75629;BME280;64213;46.452;16.994;2023-11-18T10:36:39;100527.81;;;9.51;46.72
75629;BME280;64213;46.452;16.994;2023-11-18T10:39:46;100526.69;;;9.73;46.35
75629;BME280;64213;46.452;16.994;2023-11-18T10:42:49;100524.69;;;9.94;46.14
75629;BME280;64213;46.452;16.994;2023-11-18T10:49:20;100511.78;;;10.53;45.50
75629;BME280;64213;46.452;16.994;2023-11-18T10:52:24;100517.53;;;10.61;45.36
75629;BME280;64213;46.452;16.994;2023-11-18T10:55:35;100524.87;;;9.91;46.14
75629;BME280;64213;46.452;16.994;2023-11-18T10:58:39;100515.75;;;9.96;46.45
75629;BME280;64213;46.452;16.994;2023-11-18T11:01:44;100520.25;;;10.28;46.20
75629;BME280;64213;46.452;16.994;2023-11-18T11:04:47;100518.53;;;10.42;46.04
75629;BME280;64213;46.452;16.994;2023-11-18T11:07:51;100527.31;;;10.27;45.91
75629;BME280;64213;46.452;16.994;2023-11-18T11:10:54;100520.91;;;9.82;46.26
75629;BME280;64213;46.452;16.994;2023-11-18T11:14:01;100531.69;;;9.44;46.97
75629;BME280;64213;46.452;16.994;2023-11-18T11:17:06;100524.53;;;9.97;46.23
75629;BME280;64213;46.452;16.994;2023-11-18T11:20:22;100506.78;;;9.83;46.14
75629;BME280;64213;46.452;16.994;2023-11-18T11:23:47;100518.56;;;9.93;46.05
75629;BME280;64213;46.452;16.994;2023-11-18T11:27:09;100519.53;;;10.87;44.23
75629;BME280;64213;46.452;16.994;2023-11-18T11:30:23;100481.47;;;10.74;42.89
75629;BME280;64213;46.452;16.994;2023-11-18T11:33:46;100512.19;;;10.92;42.64
75629;BME280;64213;46.452;16.994;2023-11-18T11:36:54;100509.97;;;11.15;42.52
75629;BME280;64213;46.452;16.994;2023-11-18T11:39:58;100507.97;;;11.49;42.74
75629;BME280;64213;46.452;16.994;2023-11-18T11:43:02;100501.31;;;11.41;42.40
75629;BME280;64213;46.452;16.994;2023-11-18T11:46:07;100497.38;;;11.49;41.59
75629;BME280;64213;46.452;16.994;2023-11-18T11:49:13;100496.25;;;11.53;42.78
75629;BME280;64213;46.452;16.994;2023-11-18T11:52:33;100478.69;;;11.22;42.24
75629;BME280;64213;46.452;16.994;2023-11-18T11:55:53;100495.63;;;10.89;43.17
75629;BME280;64213;46.452;16.994;2023-11-18T11:58:57;100502.41;;;10.15;44.01
75629;BME280;64213;46.452;16.994;2023-11-18T12:02:02;100509.19;;;10.04;45.09
75629;BME280;64213;46.452;16.994;2023-11-18T12:05:16;100505.44;;;10.08;44.86
75629;BME280;64213;46.452;16.994;2023-11-18T12:08:24;100502.56;;;10.12;45.12
75629;BME280;64213;46.452;16.994;2023-11-18T12:11:33;100505.72;;;10.19;44.23
75629;BME280;64213;46.452;16.994;2023-11-18T12:14:49;100492.31;;;10.06;43.94
75629;BME280;64213;46.452;16.994;2023-11-18T12:21:00;100492.50;;;10.19;43.67
75629;BME280;64213;46.452;16.994;2023-11-18T12:24:15;100497.69;;;10.20;44.11
75629;BME280;64213;46.452;16.994;2023-11-18T12:27:45;100507.06;;;10.10;45.46
75629;BME280;64213;46.452;16.994;2023-11-18T12:30:54;100505.37;;;10.09;45.97
75629;BME280;64213;46.452;16.994;2023-11-18T12:34:04;100504.41;;;9.94;46.28
75629;BME280;64213;46.452;16.994;2023-11-18T12:44:31;100512.63;;;10.06;46.28
75629;BME280;64213;46.452;16.994;2023-11-18T12:47:20;100517.75;;;9.75;46.16
75629;BME280;64213;46.452;16.994;2023-11-18T12:50:31;100524.38;;;9.67;46.91
75629;BME280;64213;46.452;16.994;2023-11-18T12:53:37;100526.03;;;9.35;46.97
75629;BME280;64213;46.452;16.994;2023-11-18T12:56:39;100532.66;;;9.26;47.15
75629;BME280;64213;46.452;16.994;2023-11-18T12:59:46;100534.50;;;9.24;47.35
75629;BME280;64213;46.452;16.994;2023-11-18T13:02:48;100543.50;;;9.02;47.68
75629;BME280;64213;46.452;16.994;2023-11-18T13:05:52;100543.97;;;9.11;47.96
75629;BME280;64213;46.452;16.994;2023-11-18T13:08:54;100539.63;;;9.10;47.28
75629;BME280;64213;46.452;16.994;2023-11-18T13:11:59;100551.41;;;9.02;47.78
75629;BME280;64213;46.452;16.994;2023-11-18T13:15:06;100553.44;;;8.97;47.24
75629;BME280;64213;46.452;16.994;2023-11-18T13:18:10;100554.03;;;9.02;47.53
75629;BME280;64213;46.452;16.994;2023-11-18T13:21:15;100549.72;;;9.01;47.68
75629;BME280;64213;46.452;16.994;2023-11-18T13:24:21;100565.53;;;9.01;47.91
75629;BME280;64213;46.452;16.994;2023-11-18T13:27:23;100564.28;;;8.91;48.43
75629;BME280;64213;46.452;16.994;2023-11-18T13:30:28;100566.22;;;8.88;48.33
75629;BME280;64213;46.452;16.994;2023-11-18T13:33:31;100565.97;;;8.75;48.52
75629;BME280;64213;46.452;16.994;2023-11-18T13:36:35;100579.84;;;8.78;48.95
75629;BME280;64213;46.452;16.994;2023-11-18T13:39:37;100578.44;;;8.71;48.86
75629;BME280;64213;46.452;16.994;2023-11-18T13:42:44;100578.03;;;8.61;48.97
75629;BME280;64213;46.452;16.994;2023-11-18T13:45:52;100588.91;;;8.54;49.20
75629;BME280;64213;46.452;16.994;2023-11-18T13:49:01;100591.78;;;8.49;49.59
75629;BME280;64213;46.452;16.994;2023-11-18T13:52:05;100608.72;;;8.44;49.20
75629;BME280;64213;46.452;16.994;2023-11-18T13:55:12;100607.34;;;8.35;49.40
75629;BME280;64213;46.452;16.994;2023-11-18T13:58:19;100614.62;;;8.30;50.25
75629;BME280;64213;46.452;16.994;2023-11-18T14:01:22;100617.72;;;8.19;50.89
75629;BME280;64213;46.452;16.994;2023-11-18T14:04:24;100618.84;;;8.13;51.46
75629;BME280;64213;46.452;16.994;2023-11-18T14:07:29;100614.06;;;8.03;51.87
75629;BME280;64213;46.452;16.994;2023-11-18T14:10:31;100617.19;;;7.92;51.91
75629;BME280;64213;46.452;16.994;2023-11-18T14:13:35;100614.00;;;7.84;53.08
75629;BME280;64213;46.452;16.994;2023-11-18T14:16:39;100609.09;;;7.76;52.96
75629;BME280;64213;46.452;16.994;2023-11-18T14:19:42;100606.75;;;7.68;53.39
75629;BME280;64213;46.452;16.994;2023-11-18T14:22:44;100607.03;;;7.62;53.60
75629;BME280;64213;46.452;16.994;2023-11-18T14:25:48;100609.94;;;7.56;53.91
75629;BME280;64213;46.452;16.994;2023-11-18T14:28:50;100603.28;;;7.48;54.59
75629;BME280;64213;46.452;16.994;2023-11-18T14:31:53;100607.97;;;7.41;54.24
75629;BME280;64213;46.452;16.994;2023-11-18T14:34:56;100603.06;;;7.32;54.68
75629;BME280;64213;46.452;16.994;2023-11-18T14:37:58;100615.66;;;7.23;55.69
75629;BME280;64213;46.452;16.994;2023-11-18T14:41:01;100603.69;;;7.16;55.88
75629;BME280;64213;46.452;16.994;2023-11-18T14:44:03;100602.38;;;7.06;56.33
75629;BME280;64213;46.452;16.994;2023-11-18T14:47:06;100605.12;;;7.03;56.11
75629;BME280;64213;46.452;16.994;2023-11-18T14:50:09;100616.84;;;6.94;56.42
75629;BME280;64213;46.452;16.994;2023-11-18T14:53:20;100616.19;;;6.89;56.78
75629;BME280;64213;46.452;16.994;2023-11-18T14:56:22;100612.16;;;6.81;57.23
75629;BME280;64213;46.452;16.994;2023-11-18T14:59:25;100610.81;;;6.70;58.04
75629;BME280;64213;46.452;16.994;2023-11-18T15:02:29;100610.34;;;6.59;58.75
75629;BME280;64213;46.452;16.994;2023-11-18T15:05:32;100615.06;;;6.51;59.43
75629;BME280;64213;46.452;16.994;2023-11-18T15:08:36;100609.25;;;6.41;60.06
75629;BME280;64213;46.452;16.994;2023-11-18T15:11:44;100606.94;;;6.34;60.25
75629;BME280;64213;46.452;16.994;2023-11-18T15:14:47;100600.34;;;6.22;61.04
75629;BME280;64213;46.452;16.994;2023-11-18T15:17:51;100605.78;;;6.17;60.85
75629;BME280;64213;46.452;16.994;2023-11-18T15:20:54;100614.75;;;6.12;60.70
75629;BME280;64213;46.452;16.994;2023-11-18T15:23:58;100635.19;;;6.03;60.80
75629;BME280;64213;46.452;16.994;2023-11-18T15:27:05;100645.91;;;5.97;61.15
75629;BME280;64213;46.452;16.994;2023-11-18T15:30:08;100631.38;;;5.87;61.09
75629;BME280;64213;46.452;16.994;2023-11-18T15:33:14;100632.38;;;5.83;61.39
75629;BME280;64213;46.452;16.994;2023-11-18T15:36:17;100638.81;;;5.74;62.00
75629;BME280;64213;46.452;16.994;2023-11-18T15:39:19;100641.59;;;5.70;62.19
75629;BME280;64213;46.452;16.994;2023-11-18T15:42:22;100648.09;;;5.58;62.79
75629;BME280;64213;46.452;16.994;2023-11-18T15:45:24;100662.44;;;5.48;63.54
75629;BME280;64213;46.452;16.994;2023-11-18T15:48:27;100671.63;;;5.34;64.61
75629;BME280;64213;46.452;16.994;2023-11-18T15:51:29;100678.00;;;5.26;65.19
75629;BME280;64213;46.452;16.994;2023-11-18T15:54:33;100681.19;;;5.35;64.67
75629;BME280;64213;46.452;16.994;2023-11-18T15:57:46;100674.09;;;5.39;64.58
75629;BME280;64213;46.452;16.994;2023-11-18T16:00:57;100681.16;;;5.37;64.58
75629;BME280;64213;46.452;16.994;2023-11-18T16:03:59;100677.91;;;5.29;65.36
75629;BME280;64213;46.452;16.994;2023-11-18T16:07:02;100677.91;;;5.29;65.56
75629;BME280;64213;46.452;16.994;2023-11-18T16:10:05;100693.81;;;5.24;66.10
75629;BME280;64213;46.452;16.994;2023-11-18T16:13:08;100701.97;;;5.15;66.71
75629;BME280;64213;46.452;16.994;2023-11-18T16:16:10;100714.59;;;5.02;67.64
75629;BME280;64213;46.452;16.994;2023-11-18T16:19:14;100714.03;;;4.91;68.09